Time;durP1;ratioP1;P1;durP2;ratioP2;P2;SDS_P1;SDS_P2;PMS_P1;PMS_P2;Temp;Humidity;BMP_temperature;BMP_pressure;BME280_temperature;BME280_humidity;BME280_pressure;Samples;Min_cycle;Max_cycle;Signal;HPM_P1;HPM_P2
2022/04/27 00:02:11;;;;;;;4.10;3.90;;;14.40;53.60;;;;;;20716;6834;117183;-73
2022/04/27 00:04:37;;;;;;;4.32;4.12;;;14.20;54.10;;;;;;20545;6834;312513;-73
2022/04/27 00:07:04;;;;;;;4.35;4.15;;;14.20;54.10;;;;;;20504;6834;307474;-73
2022/04/27 00:09:33;;;;;;;3.40;3.20;;;14.40;53.80;;;;;;20724;6834;118491;-73
2022/04/27 00:12:01;;;;;;;3.47;3.37;;;14.40;53.80;;;;;;20745;6834;117240;-73
2022/04/27 00:14:30;;;;;;;4.18;3.97;;;14.20;54.40;;;;;;20541;6834;340906;-73
2022/04/27 00:16:56;;;;;;;4.20;4.00;;;14.30;54.30;;;;;;20745;6834;118365;-73
2022/04/27 00:19:22;;;;;;;4.22;4.03;;;14.40;54.00;;;;;;20523;6834;312050;-73
2022/04/27 00:21:48;;;;;;;4.53;4.33;;;14.40;54.00;;;;;;20755;6834;118532;-73
2022/04/27 00:24:13;;;;;;;4.85;4.65;;;14.40;54.30;;;;;;20764;6834;123632;-73
2022/04/27 00:26:39;;;;;;;4.80;4.53;;;14.20;54.50;;;;;;20545;6834;336341;-73
2022/04/27 00:29:04;;;;;;;4.68;4.47;;;14.30;54.10;;;;;;20540;6834;301729;-73
2022/04/27 00:31:31;;;;;;;4.57;4.37;;;14.80;51.80;;;;;;20516;6834;341497;-73
2022/04/27 00:33:56;;;;;;;4.00;3.70;;;14.80;51.80;;;;;;20744;6834;118782;-73
2022/04/27 00:36:22;;;;;;;4.10;3.90;;;14.70;52.30;;;;;;20752;6834;117143;-73
2022/04/27 00:38:47;;;;;;;4.13;3.93;;;14.40;53.10;;;;;;20751;6834;117676;-73
2022/04/27 00:41:13;;;;;;;4.32;4.12;;;14.20;54.00;;;;;;20523;6834;308444;-73
2022/04/27 00:43:39;;;;;;;5.00;4.80;;;14.30;53.60;;;;;;20543;6833;277558;-73
2022/04/27 00:46:04;;;;;;;5.03;4.72;;;14.60;52.40;;;;;;20747;6833;118096;-73
2022/04/27 00:48:30;;;;;;;4.03;3.83;;;14.40;52.70;;;;;;20739;6834;117499;-73
2022/04/27 00:50:56;;;;;;;5.40;5.17;;;14.10;53.40;;;;;;20532;6834;312440;-73
2022/04/27 00:53:21;;;;;;;4.40;4.10;;;14.20;53.20;;;;;;20713;6834;118235;-73
2022/04/27 00:55:47;;;;;;;5.03;4.80;;;14.20;53.60;;;;;;20544;6834;283083;-73
2022/04/27 00:58:13;;;;;;;5.45;5.15;;;14.20;53.60;;;;;;20535;6834;307976;-73
2022/04/27 01:00:38;;;;;;;5.07;4.87;;;14.40;52.60;;;;;;20538;6834;307581;-72
2022/04/27 01:03:04;;;;;;;4.80;4.60;;;14.60;52.50;;;;;;20540;6834;308850;-73
2022/04/27 01:05:30;;;;;;;3.43;3.33;;;14.50;53.10;;;;;;20741;6834;119524;-72
2022/04/27 01:08:00;;;;;;;5.17;4.87;;;14.50;53.70;;;;;;20754;6834;117204;-73
2022/04/27 01:10:23;;;;;;;4.50;4.30;;;14.20;53.80;;;;;;20534;6834;284443;-72
2022/04/27 01:12:48;;;;;;;4.95;4.68;;;14.30;53.50;;;;;;20537;6834;278121;-72
2022/04/27 01:15:14;;;;;;;4.73;4.53;;;14.50;52.60;;;;;;20523;6834;277541;-73
2022/04/27 01:17:40;;;;;;;4.15;3.95;;;14.50;52.50;;;;;;20688;6834;117969;-72
2022/04/27 01:20:06;;;;;;;4.30;4.00;;;14.50;52.50;;;;;;20728;6834;117147;-72
2022/04/27 01:22:32;;;;;;;3.87;3.67;;;14.20;53.30;;;;;;20744;6834;118278;-73
2022/04/27 01:24:57;;;;;;;3.97;3.78;;;13.90;54.00;;;;;;20746;6834;117165;-72
2022/04/27 01:27:23;;;;;;;4.40;4.20;;;13.60;54.60;;;;;;20736;6834;118331;-72
2022/04/27 01:29:48;;;;;;;4.80;4.60;;;13.40;55.30;;;;;;20531;6834;278213;-72
2022/04/27 01:32:15;;;;;;;4.85;4.57;;;13.60;54.90;;;;;;20750;6834;117884;-72
2022/04/27 01:34:39;;;;;;;4.33;4.13;;;13.60;55.10;;;;;;20532;6834;307642;-73
2022/04/27 01:39:52;;;;;;;4.63;4.33;;;14.10;54.00;;;;;;20749;6834;117351;-72
2022/04/27 01:42:17;;;;;;;4.57;4.37;;;14.00;54.10;;;;;;20539;6834;292418;-72
2022/04/27 01:44:42;;;;;;;5.00;4.80;;;14.00;53.70;;;;;;20533;6834;337068;-72
2022/04/27 01:47:08;;;;;;;5.72;5.43;;;14.30;53.10;;;;;;20518;6834;308453;-72
2022/04/27 01:49:34;;;;;;;3.67;3.47;;;14.30;52.90;;;;;;20741;6834;117087;-72
2022/04/27 01:54:45;;;;;;;5.20;4.90;;;14.00;53.90;;;;;;20532;6834;345735;-72
2022/04/27 01:57:12;;;;;;;4.20;4.00;;;14.00;53.90;;;;;;20736;6832;121505;-72
2022/04/27 01:59:37;;;;;;;3.70;3.50;;;13.90;53.80;;;;;;20746;6834;117254;-72
2022/04/27 02:02:03;;;;;;;4.07;3.87;;;13.70;54.70;;;;;;20753;6834;121002;-72
2022/04/27 02:04:28;;;;;;;4.60;4.30;;;13.60;55.60;;;;;;20752;6834;117081;-72
2022/04/27 02:06:54;;;;;;;4.90;4.70;;;13.50;56.00;;;;;;20538;6834;338289;-72
2022/04/27 02:09:19;;;;;;;5.15;4.85;;;13.70;55.10;;;;;;20730;6834;126970;-72
2022/04/27 02:11:46;;;;;;;5.70;5.30;;;13.60;55.40;;;;;;20753;6834;117776;-72
2022/04/27 02:14:11;;;;;;;4.67;4.33;;;13.60;56.00;;;;;;20742;6834;118243;-72
2022/04/27 02:16:38;;;;;;;6.93;6.50;;;13.40;55.80;;;;;;20750;6834;117626;-72
2022/04/27 02:19:04;;;;;;;6.00;5.70;;;13.20;56.30;;;;;;20534;6834;277711;-72
2022/04/27 02:21:28;;;;;;;7.17;6.67;;;13.40;55.60;;;;;;20514;6834;282642;-72
2022/04/27 02:23:56;;;;;;;4.53;4.32;;;13.70;54.60;;;;;;20750;6834;123690;-72
2022/04/27 02:26:20;;;;;;;5.22;5.00;;;13.70;54.60;;;;;;20535;6834;321588;-72
2022/04/27 02:28:46;;;;;;;4.60;4.40;;;13.80;54.80;;;;;;20540;6834;280145;-72
2022/04/27 02:31:11;;;;;;;6.68;6.32;;;14.10;54.20;;;;;;20518;6834;308875;-72
2022/04/27 02:33:37;;;;;;;4.35;4.15;;;14.40;53.00;;;;;;20536;6834;307991;-72
2022/04/27 02:36:02;;;;;;;4.80;4.50;;;14.60;52.60;;;;;;20751;6834;117593;-72
2022/04/27 02:38:28;;;;;;;6.13;5.83;;;14.50;53.20;;;;;;20750;6834;118767;-72
2022/04/27 02:41:17;;;;;;;5.03;4.68;;;13.90;54.30;;;;;;20757;6834;117151;-72
2022/04/27 02:43:43;;;;;;;6.00;5.70;;;13.90;54.30;;;;;;20516;6834;278018;-72
2022/04/27 02:46:08;;;;;;;5.87;5.57;;;14.10;53.40;;;;;;20746;6834;117533;-72
2022/04/27 02:48:35;;;;;;;4.40;4.20;;;13.90;54.10;;;;;;20737;6834;123994;-72
2022/04/27 02:53:47;;;;;;;4.43;4.17;;;13.80;54.80;;;;;;20736;6834;117870;-72
2022/04/27 02:56:13;;;;;;;8.10;7.60;;;13.60;55.20;;;;;;20529;6834;298160;-72
2022/04/27 02:58:39;;;;;;;6.13;5.83;;;14.10;52.10;;;;;;20534;6834;315068;-72
2022/04/27 03:01:05;;;;;;;5.63;5.33;;;14.10;52.10;;;;;;20524;6834;307219;-72
2022/04/27 03:03:30;;;;;;;5.40;5.00;;;14.40;51.70;;;;;;20724;6834;118424;-72
2022/04/27 03:05:56;;;;;;;4.57;4.37;;;14.30;52.40;;;;;;20539;6834;307166;-72
2022/04/27 03:08:21;;;;;;;5.07;4.87;;;14.30;52.70;;;;;;20746;6833;116960;-72
2022/04/27 03:10:47;;;;;;;6.45;6.15;;;14.30;53.20;;;;;;20530;6834;337565;-76
2022/04/27 03:13:13;;;;;;;5.77;5.47;;;14.40;52.00;;;;;;20734;6834;117612;-76
2022/04/27 03:15:38;;;;;;;5.45;5.15;;;14.20;52.40;;;;;;20752;6834;117345;-75
2022/04/27 03:18:24;;;;;;;6.07;5.68;;;13.90;53.70;;;;;;20546;6834;306712;-74
2022/04/27 03:20:34;;;;;;;6.27;5.97;;;14.00;52.70;;;;;;20418;6834;307496;-74
2022/04/27 03:23:00;;;;;;;5.17;4.90;;;14.20;52.00;;;;;;20755;6834;118823;-74
2022/04/27 03:25:26;;;;;;;5.37;4.97;;;14.00;53.50;;;;;;20739;6834;117675;-74
2022/04/27 03:27:51;;;;;;;5.80;5.50;;;14.00;53.50;;;;;;20752;6834;117377;-74
2022/04/27 03:30:17;;;;;;;5.20;4.90;;;13.80;54.00;;;;;;20753;6834;117794;-73
2022/04/27 03:32:43;;;;;;;5.90;5.60;;;13.60;55.10;;;;;;20754;6834;118044;-76
2022/04/27 03:35:09;;;;;;;5.23;4.93;;;13.60;55.00;;;;;;20759;6834;120578;-75
2022/04/27 03:37:35;;;;;;;5.90;5.60;;;13.50;55.30;;;;;;20525;6834;308220;-75
2022/04/27 03:40:00;;;;;;;5.77;5.47;;;13.70;53.80;;;;;;20544;6834;307989;-75
2022/04/27 03:42:26;;;;;;;8.03;7.63;;;14.10;52.90;;;;;;20540;6834;292120;-74
2022/04/27 03:44:51;;;;;;;8.07;7.57;;;14.40;52.40;;;;;;20753;6834;117156;-75
2022/04/27 03:47:17;;;;;;;6.90;6.50;;;14.40;52.20;;;;;;20521;6834;308030;-75
2022/04/27 03:49:42;;;;;;;7.57;7.17;;;14.40;51.50;;;;;;20754;6834;117622;-75
2022/04/27 03:52:08;;;;;;;10.53;9.93;;;14.30;52.10;;;;;;20546;6834;278363;-74
2022/04/27 03:54:34;;;;;;;7.40;6.97;;;14.30;51.10;;;;;;20754;6834;117364;-75
2022/04/27 03:56:59;;;;;;;9.00;8.50;;;14.20;51.70;;;;;;20538;6834;308400;-75
2022/04/27 03:59:26;;;;;;;9.27;8.68;;;14.30;51.30;;;;;;20739;6834;130721;-75
2022/04/27 04:01:51;;;;;;;8.77;8.20;;;14.20;51.70;;;;;;20751;6834;117748;-75
2022/04/27 04:04:17;;;;;;;8.85;8.35;;;14.00;52.40;;;;;;20548;6834;278038;-76
2022/04/27 04:06:43;;;;;;;8.45;7.95;;;14.10;51.80;;;;;;20538;6834;336157;-76
2022/04/27 04:09:09;;;;;;;9.50;9.00;;;14.40;51.40;;;;;;20548;6834;278116;-75
2022/04/27 04:11:34;;;;;;;9.57;8.98;;;14.70;50.30;;;;;;20499;6834;316280;-75
2022/04/27 04:13:59;;;;;;;8.90;8.40;;;14.80;50.20;;;;;;20765;6834;117643;-74
2022/04/27 04:16:25;;;;;;;8.55;8.05;;;14.70;50.60;;;;;;20756;6834;123195;-74
2022/04/27 04:18:51;;;;;;;7.17;6.77;;;14.30;51.30;;;;;;20754;6833;117219;-74
2022/04/27 04:21:16;;;;;;;8.02;7.53;;;14.10;52.10;;;;;;20524;6834;318754;-72
2022/04/27 04:23:42;;;;;;;8.88;8.38;;;14.50;51.50;;;;;;20541;6834;306996;-72
2022/04/27 04:28:53;;;;;;;9.30;8.70;;;14.50;51.40;;;;;;20752;6834;122034;-72
2022/04/27 04:31:19;;;;;;;8.25;7.75;;;14.20;52.10;;;;;;20731;6834;117229;-73
2022/04/27 04:33:45;;;;;;;11.45;10.75;;;14.00;52.50;;;;;;20535;6834;307589;-72
2022/04/27 04:36:11;;;;;;;10.30;9.70;;;14.10;51.50;;;;;;20535;6834;307660;-76
2022/04/27 04:38:37;;;;;;;9.50;8.90;;;14.30;51.10;;;;;;20745;6834;117474;-73
2022/04/27 04:41:03;;;;;;;10.65;10.05;;;14.20;51.00;;;;;;20520;6834;308718;-74
2022/04/27 04:43:32;;;;;;;11.47;10.77;;;14.20;51.00;;;;;;20526;6834;288348;-75
2022/04/27 04:45:59;;;;;;;8.37;7.87;;;14.40;50.70;;;;;;20702;6849;117829;-80
2022/04/27 04:48:25;;;;;;;8.47;7.97;;;14.20;51.20;;;;;;20751;6834;117455;-76
2022/04/27 04:50:50;;;;;;;9.90;9.27;;;13.90;52.20;;;;;;20754;6834;117599;-76
2022/04/27 04:53:16;;;;;;;8.60;8.10;;;13.70;53.00;;;;;;20737;6834;118128;-74
2022/04/27 04:55:42;;;;;;;9.20;8.60;;;13.60;53.60;;;;;;20535;6834;337175;-77
2022/04/27 04:58:10;;;;;;;9.27;8.57;;;13.70;52.80;;;;;;20757;6834;118758;-78
2022/04/27 05:00:34;;;;;;;9.50;9.00;;;13.70;53.10;;;;;;20539;6834;312387;-77
2022/04/27 05:02:59;;;;;;;12.05;11.15;;;14.00;52.80;;;;;;20539;6834;308385;-76
2022/04/27 05:05:25;;;;;;;9.83;9.20;;;14.20;51.20;;;;;;20739;6834;124445;-75
2022/04/27 05:07:54;;;;;;;11.97;11.13;;;14.20;51.60;;;;;;20753;6834;121660;-76
2022/04/27 05:10:19;;;;;;;10.60;9.80;;;13.90;52.20;;;;;;20701;6849;121904;-76
2022/04/27 05:12:45;;;;;;;11.23;10.53;;;13.60;52.70;;;;;;20757;6834;117631;-76
2022/04/27 05:15:11;;;;;;;11.75;10.88;;;13.40;53.30;;;;;;20749;6834;117716;-78
2022/04/27 05:17:36;;;;;;;11.53;10.83;;;13.20;53.70;;;;;;20395;6834;309505;-75
2022/04/27 05:20:02;;;;;;;10.85;10.20;;;13.60;53.20;;;;;;20542;6834;307526;-81
2022/04/27 05:22:28;;;;;;;8.97;8.37;;;13.60;53.20;;;;;;20704;6849;118780;-76
2022/04/27 05:24:54;;;;;;;14.70;13.67;;;13.60;53.70;;;;;;20519;6834;312522;-78
2022/04/27 05:27:24;;;;;;;9.32;8.82;;;13.80;52.60;;;;;;20518;6834;337635;-77
2022/04/27 05:32:43;;;;;;;7.77;7.27;;;14.30;51.70;;;;;;20760;6834;117010;-77
2022/04/27 05:35:08;;;;;;;9.63;9.10;;;14.30;52.40;;;;;;20546;6834;287262;-77
2022/04/27 05:37:34;;;;;;;10.53;9.83;;;14.40;51.80;;;;;;20527;6834;280038;-77
2022/04/27 05:39:59;;;;;;;10.13;9.53;;;14.80;51.30;;;;;;20550;6834;282581;-77
2022/04/27 05:42:26;;;;;;;9.73;9.13;;;15.00;50.50;;;;;;20750;6834;117833;-78
2022/04/27 05:44:52;;;;;;;9.50;9.00;;;14.90;50.50;;;;;;20544;6834;283926;-75
2022/04/27 05:47:18;;;;;;;12.18;11.38;;;14.90;50.50;;;;;;20504;6834;311990;-75
2022/04/27 05:49:43;;;;;;;13.48;12.55;;;15.10;49.90;;;;;;20540;6834;334850;-77
2022/04/27 05:52:09;;;;;;;11.57;10.77;;;15.30;49.70;;;;;;20760;6834;119622;-75
2022/04/27 05:54:35;;;;;;;13.38;12.27;;;15.20;50.30;;;;;;20754;6834;120477;-75
2022/04/27 05:57:00;;;;;;;14.80;13.80;;;14.90;51.00;;;;;;20546;6834;278137;-75
2022/04/27 05:59:26;;;;;;;16.95;15.60;;;14.90;51.70;;;;;;20732;6834;146391;-77
2022/04/27 06:01:52;;;;;;;21.00;19.40;;;14.90;51.00;;;;;;20537;6834;308014;-75
2022/04/27 06:04:18;;;;;;;16.87;15.52;;;15.00;49.90;;;;;;20758;6834;121619;-74
2022/04/27 06:06:43;;;;;;;15.15;13.95;;;15.00;50.80;;;;;;20752;6834;117293;-71
2022/04/27 06:09:09;;;;;;;12.05;11.15;;;14.80;51.50;;;;;;20749;6834;118397;-72
2022/04/27 06:11:34;;;;;;;15.73;14.63;;;14.60;51.60;;;;;;20515;6834;307563;-72
2022/04/27 06:14:01;;;;;;;15.70;14.40;;;14.70;50.10;;;;;;20706;6849;124382;-72
2022/04/27 06:16:27;;;;;;;14.77;13.57;;;14.70;50.10;;;;;;20702;6849;121178;-72
2022/04/27 06:18:52;;;;;;;18.50;17.10;;;14.50;51.10;;;;;;20535;6834;308074;-72
2022/04/27 06:21:19;;;;;;;16.00;14.60;;;14.60;50.90;;;;;;20723;6834;118777;-73
2022/04/27 06:23:44;;;;;;;14.70;13.50;;;14.50;51.10;;;;;;20751;6834;117748;-72
2022/04/27 06:26:10;;;;;;;17.43;16.13;;;14.30;51.30;;;;;;20539;6834;320214;-72
2022/04/27 06:28:35;;;;;;;17.23;15.83;;;14.40;49.50;;;;;;20540;6834;283658;-74
2022/04/27 06:31:01;;;;;;;16.67;15.27;;;14.70;49.30;;;;;;20751;6834;117443;-77
2022/04/27 06:33:26;;;;;;;16.30;14.95;;;14.60;49.70;;;;;;20680;6849;119906;-76
2022/04/27 06:35:52;;;;;;;14.85;13.50;;;14.40;50.50;;;;;;20764;6834;117564;-74
2022/04/27 06:38:18;;;;;;;16.30;14.80;;;14.20;51.20;;;;;;20748;6834;117993;-74
2022/04/27 06:40:44;;;;;;;39.13;35.20;;;14.20;52.40;;;;;;20491;6849;309321;-74
2022/04/27 06:43:10;;;;;;;16.60;15.40;;;14.20;52.40;;;;;;20538;6832;307971;-74
2022/04/27 06:45:36;;;;;;;20.77;19.17;;;14.60;49.70;;;;;;20521;6834;337311;-76
2022/04/27 06:48:05;;;;;;;16.23;15.00;;;14.90;49.70;;;;;;20707;6849;117688;-73
2022/04/27 06:50:30;;;;;;;17.60;16.27;;;14.80;49.50;;;;;;20544;6831;307717;-73
2022/04/27 06:52:59;;;;;;;15.53;14.23;;;14.90;50.10;;;;;;20763;6831;119013;-74
2022/04/27 06:55:22;;;;;;;18.10;16.60;;;14.90;50.10;;;;;;20520;6831;339527;-72
2022/04/27 06:57:48;;;;;;;17.83;16.63;;;15.00;49.00;;;;;;20548;6831;339681;-72
2022/04/27 07:00:13;;;;;;;15.93;14.33;;;15.30;48.20;;;;;;20759;6831;121686;-72
2022/04/27 07:02:39;;;;;;;15.23;14.00;;;15.30;49.00;;;;;;20757;6831;117463;-72
2022/04/27 07:05:06;;;;;;;15.02;13.82;;;14.70;50.10;;;;;;20766;6831;117746;-72
2022/04/27 07:07:31;;;;;;;14.90;13.53;;;14.70;50.10;;;;;;20734;6831;118060;-72
2022/04/27 07:09:57;;;;;;;17.10;15.90;;;14.50;48.80;;;;;;20547;6831;336959;-72
2022/04/27 07:12:23;;;;;;;16.87;15.68;;;14.50;48.80;;;;;;20556;6831;306538;-72
2022/04/27 07:14:48;;;;;;;17.70;16.48;;;14.80;48.30;;;;;;20547;6831;312185;-72
2022/04/27 07:17:15;;;;;;;16.37;14.93;;;14.80;48.40;;;;;;20753;6831;150596;-73
2022/04/27 07:19:40;;;;;;;15.97;14.63;;;14.80;48.30;;;;;;20764;6831;118122;-72
2022/04/27 07:22:06;;;;;;;16.50;15.20;;;14.50;49.20;;;;;;20768;6831;121416;-72
2022/04/27 07:24:31;;;;;;;15.65;14.45;;;14.20;50.20;;;;;;20759;6831;117688;-72
2022/04/27 07:26:57;;;;;;;17.83;16.52;;;14.10;50.80;;;;;;20555;6831;308729;-72
2022/04/27 07:29:22;;;;;;;14.87;13.73;;;14.20;50.20;;;;;;20747;6831;121343;-73
2022/04/27 07:31:50;;;;;;;15.27;13.95;;;14.10;50.70;;;;;;20767;6831;117667;-72
2022/04/27 07:34:16;;;;;;;18.00;16.70;;;14.00;50.50;;;;;;20550;6831;307133;-72
2022/04/27 07:36:41;;;;;;;19.70;18.20;;;14.20;50.00;;;;;;20554;6831;310124;-72
2022/04/27 07:39:07;;;;;;;17.90;16.40;;;14.50;48.60;;;;;;20760;6831;117488;-72
2022/04/27 07:41:33;;;;;;;18.60;17.20;;;14.60;49.70;;;;;;20529;6831;311253;-73
2022/04/27 07:43:59;;;;;;;16.77;15.30;;;14.60;49.70;;;;;;20759;6831;123560;-73
2022/04/27 07:46:24;;;;;;;17.27;15.73;;;14.50;50.20;;;;;;20760;6831;117537;-72
2022/04/27 07:48:53;;;;;;;20.03;18.53;;;14.40;50.90;;;;;;20551;6831;277171;-73
2022/04/27 07:51:18;;;;;;;17.27;15.80;;;14.50;49.70;;;;;;20689;6849;124423;-73
2022/04/27 07:53:44;;;;;;;19.80;18.33;;;14.50;50.10;;;;;;20539;6832;306718;-72
2022/04/27 07:56:09;;;;;;;21.33;19.63;;;14.60;48.90;;;;;;20542;6834;329534;-73
2022/04/27 07:58:36;;;;;;;16.25;15.05;;;15.00;50.10;;;;;;20708;6849;117585;-72
2022/04/27 08:01:01;;;;;;;15.13;14.02;;;15.00;50.10;;;;;;20541;6834;337284;-72
2022/04/27 08:03:27;;;;;;;15.90;14.80;;;15.30;48.20;;;;;;20519;6834;337305;-72
2022/04/27 08:05:52;;;;;;;15.47;14.40;;;15.60;48.00;;;;;;20495;6849;308597;-72
2022/04/27 08:08:18;;;;;;;12.93;12.13;;;16.00;47.70;;;;;;20509;6849;315004;-72
2022/04/27 08:10:44;;;;;;;10.53;9.90;;;16.50;47.10;;;;;;20763;6834;117391;-73
2022/04/27 08:13:10;;;;;;;12.50;11.70;;;16.50;46.80;;;;;;20545;6834;307643;-73
2022/04/27 08:15:35;;;;;;;10.52;9.82;;;16.80;46.30;;;;;;20742;6834;119354;-73
2022/04/27 08:18:01;;;;;;;12.67;11.67;;;16.80;46.70;;;;;;20760;6834;117669;-72
2022/04/27 08:23:13;;;;;;;8.33;7.83;;;16.50;48.10;;;;;;20735;6834;117492;-73
2022/04/27 08:25:38;;;;;;;8.60;8.10;;;16.60;48.50;;;;;;20750;6834;117814;-73
2022/04/27 08:28:06;;;;;;;12.37;11.57;;;16.70;48.20;;;;;;20542;6834;279318;-73
2022/04/27 08:30:30;;;;;;;61.75;47.47;;;17.10;44.30;;;;;;20482;6849;309519;-73
2022/04/27 08:32:59;;;;;;;8.90;8.30;;;17.10;44.10;;;;;;20755;6834;118066;-72
2022/04/27 08:35:21;;;;;;;8.80;8.30;;;17.10;44.90;;;;;;20512;6834;337491;-73
2022/04/27 08:37:47;;;;;;;10.27;9.67;;;17.00;43.80;;;;;;20543;6834;278031;-72
2022/04/27 08:40:12;;;;;;;10.65;10.00;;;17.20;43.30;;;;;;20540;6834;312730;-72
2022/04/27 08:42:39;;;;;;;7.97;7.47;;;17.20;44.20;;;;;;20754;6834;117943;-73
2022/04/27 08:45:04;;;;;;;9.43;8.63;;;17.20;44.20;;;;;;20752;6834;117197;-72
2022/04/27 08:47:30;;;;;;;9.67;9.03;;;16.80;44.60;;;;;;20526;6834;278505;-73
2022/04/27 08:49:55;;;;;;;9.43;8.63;;;16.80;43.70;;;;;;20741;6834;117796;-72
2022/04/27 08:52:22;;;;;;;10.10;9.50;;;16.60;43.20;;;;;;20539;6834;307654;-72
2022/04/27 08:54:47;;;;;;;9.43;8.77;;;16.60;43.20;;;;;;20752;6834;117680;-72
2022/04/27 08:57:13;;;;;;;8.85;8.32;;;16.40;44.50;;;;;;20522;6834;280932;-73
2022/04/27 08:59:38;;;;;;;8.60;8.10;;;16.50;43.80;;;;;;20765;6834;121593;-72
2022/04/27 09:02:27;;;;;;;8.95;8.45;;;16.70;45.30;;;;;;20551;6834;307411;-72
2022/04/27 09:05:13;;;;;;;7.30;6.80;;;16.90;43.70;;;;;;20746;6833;118393;-71
2022/04/27 09:07:41;;;;;;;6.97;6.47;;;17.00;44.70;;;;;;20545;6834;305594;-72
2022/04/27 09:10:07;;;;;;;6.87;6.47;;;17.30;43.40;;;;;;20740;6834;117170;-71
2022/04/27 09:12:32;;;;;;;6.00;5.60;;;17.40;44.10;;;;;;20721;6834;118816;-70
2022/04/27 09:15:06;;;;;;;6.25;5.95;;;17.40;41.10;;;;;;20543;6834;279641;-73
2022/04/27 09:23:03;;;;;;;6.50;6.13;;;17.80;42.20;;;;;;20520;6834;308027;-70
2022/04/27 09:25:29;;;;;;;6.00;5.70;;;17.90;39.50;;;;;;20513;6834;307265;-70
2022/04/27 09:27:54;;;;;;;6.40;6.10;;;18.20;39.00;;;;;;20516;6834;310491;-71
2022/04/27 09:30:20;;;;;;;6.12;5.80;;;18.30;38.80;;;;;;20752;6834;117383;-71
2022/04/27 09:32:50;;;;;;;5.45;5.15;;;18.10;40.60;;;;;;20729;6834;117569;-71
2022/04/27 09:35:34;;;;;;;6.70;6.30;;;17.90;39.80;;;;;;20518;6834;336617;-70
2022/04/27 09:38:19;;;;;;;6.40;6.00;;;17.80;41.50;;;;;;20717;6834;117588;-70
2022/04/27 09:40:58;;;;;;;6.33;5.93;;;17.80;41.50;;;;;;20539;6834;307296;-71
2022/04/27 09:43:44;;;;;;;6.33;5.93;;;17.90;40.30;;;;;;20526;6834;278399;-71
2022/04/27 09:46:25;;;;;;;6.17;5.87;;;18.10;39.80;;;;;;20537;6834;307915;-71
2022/04/27 09:49:02;;;;;;;6.23;5.93;;;17.90;41.30;;;;;;20754;6834;122366;-72
2022/04/27 09:51:27;;;;;;;7.00;6.60;;;17.90;41.20;;;;;;20737;6834;117465;-73
2022/04/27 09:53:53;;;;;;;6.43;6.10;;;17.60;42.10;;;;;;20750;6834;117377;-74
2022/04/27 09:56:21;;;;;;;6.40;6.00;;;17.30;42.80;;;;;;20741;6834;117174;-73
2022/04/27 09:58:44;;;;;;;6.65;6.32;;;17.20;43.50;;;;;;20531;6834;278510;-73
2022/04/27 10:01:09;;;;;;;6.40;6.10;;;17.30;42.20;;;;;;20531;6834;312126;-74
2022/04/27 10:03:35;;;;;;;8.38;7.87;;;17.70;40.80;;;;;;20470;6834;314278;-74
2022/04/27 10:06:02;;;;;;;5.53;5.22;;;18.10;41.20;;;;;;20746;6834;117354;-74
2022/04/27 10:08:27;;;;;;;5.72;5.43;;;18.10;40.70;;;;;;20543;6834;307241;-75
2022/04/27 10:10:52;;;;;;;6.83;6.53;;;18.20;38.40;;;;;;20537;6834;341656;-73
2022/04/27 10:13:18;;;;;;;6.50;6.10;;;18.40;38.30;;;;;;20724;6834;118621;-72
2022/04/27 10:15:45;;;;;;;7.47;7.07;;;18.40;40.00;;;;;;20543;6834;282916;-72
2022/04/27 10:18:10;;;;;;;7.40;7.00;;;18.50;38.50;;;;;;20535;6832;308431;-72
2022/04/27 10:20:36;;;;;;;7.60;7.20;;;18.70;38.90;;;;;;20750;6834;117042;-72
2022/04/27 10:23:14;;;;;;;71.43;64.90;;;18.70;40.50;;;;;;20538;6834;308828;-73
2022/04/27 10:25:41;;;;;;;7.60;7.00;;;18.60;40.90;;;;;;20752;6834;117998;-73
2022/04/27 10:28:23;;;;;;;6.93;6.53;;;18.60;40.90;;;;;;20747;6834;117117;-72
2022/04/27 10:30:48;;;;;;;7.13;6.73;;;18.40;41.80;;;;;;20542;6834;297590;-72
2022/04/27 10:33:47;;;;;;;6.43;6.03;;;18.60;40.70;;;;;;20714;6834;124417;-73
2022/04/27 10:36:22;;;;;;;6.23;5.93;;;18.70;41.50;;;;;;20536;6834;317353;-72
2022/04/27 10:39:11;;;;;;;6.97;6.57;;;19.50;38.30;;;;;;20493;6834;336632;-72
2022/04/27 10:41:40;;;;;;;6.73;6.33;;;19.50;38.30;;;;;;20757;6834;117734;-72
2022/04/27 10:44:06;;;;;;;5.80;5.50;;;19.40;39.80;;;;;;20539;6834;307210;-72
2022/04/27 10:46:38;;;;;;;5.43;5.12;;;19.30;36.20;;;;;;20538;6834;341504;-72
2022/04/27 10:49:23;;;;;;;4.40;4.20;;;19.40;36.70;;;;;;20751;6834;117794;-72
2022/04/27 10:51:59;;;;;;;4.67;4.37;;;19.10;38.20;;;;;;20744;6834;117343;-72
2022/04/27 10:54:27;;;;;;;4.30;4.10;;;18.70;39.30;;;;;;20745;6834;117217;-72
2022/04/27 10:56:53;;;;;;;4.07;3.87;;;18.40;40.20;;;;;;20745;6834;117310;-73
2022/04/27 10:59:42;;;;;;;4.13;3.93;;;18.20;40.40;;;;;;20518;6834;338283;-71
2022/04/27 11:02:07;;;;;;;4.30;4.10;;;18.30;38.20;;;;;;20731;6834;117413;-73
2022/04/27 11:04:34;;;;;;;5.20;4.90;;;18.30;40.30;;;;;;20660;6834;123901;-75
2022/04/27 11:07:18;;;;;;;5.37;5.07;;;18.40;38.30;;;;;;20535;6834;308736;-73
2022/04/27 11:10:06;;;;;;;5.70;5.30;;;18.40;38.50;;;;;;20502;6834;308412;-73
2022/04/27 11:12:33;;;;;;;5.03;4.83;;;18.70;38.40;;;;;;20531;6834;278958;-75
2022/04/27 11:14:57;;;;;;;5.83;5.43;;;18.90;38.90;;;;;;20745;6834;117578;-73
2022/04/27 11:17:28;;;;;;;5.37;5.07;;;18.80;39.60;;;;;;20722;6834;123774;-73
2022/04/27 11:19:52;;;;;;;5.45;5.15;;;18.50;40.50;;;;;;20509;6834;278564;-74
2022/04/27 11:22:18;;;;;;;6.00;5.70;;;18.50;38.90;;;;;;20541;6834;315760;-75
2022/04/27 11:24:45;;;;;;;5.55;5.25;;;18.60;38.20;;;;;;20538;6834;307947;-76
2022/04/27 11:27:09;;;;;;;4.40;4.20;;;18.40;39.20;;;;;;20748;6834;117616;-76
2022/04/27 11:29:35;;;;;;;3.90;3.70;;;18.30;39.10;;;;;;20723;6832;117170;-76
2022/04/27 11:32:01;;;;;;;3.70;3.50;;;18.00;40.30;;;;;;20748;6834;117071;-75
2022/04/27 11:34:26;;;;;;;3.42;3.33;;;17.80;41.70;;;;;;20734;6834;121470;-76
2022/04/27 11:36:52;;;;;;;3.42;3.22;;;17.70;42.40;;;;;;20536;6834;307811;-77
2022/04/27 11:39:20;;;;;;;3.85;3.60;;;17.90;39.60;;;;;;20735;6834;118123;-76
2022/04/27 11:41:45;;;;;;;3.90;3.70;;;18.00;40.60;;;;;;20528;6834;337435;-73
2022/04/27 11:44:11;;;;;;;3.95;3.75;;;18.20;38.90;;;;;;20543;6834;308382;-74
2022/04/27 11:46:37;;;;;;;3.30;3.20;;;18.50;38.10;;;;;;20714;6834;117113;-74
2022/04/27 11:49:02;;;;;;;3.67;3.47;;;18.50;39.80;;;;;;20538;6834;307288;-74
2022/04/27 11:51:28;;;;;;;4.28;3.87;;;18.60;39.00;;;;;;20522;6834;312563;-74
2022/04/27 11:53:55;;;;;;;3.67;3.47;;;18.80;37.80;;;;;;20753;6834;121324;-72
2022/04/27 11:56:21;;;;;;;3.37;3.27;;;18.40;40.70;;;;;;20734;6834;117158;-73
2022/04/27 11:58:47;;;;;;;4.40;4.00;;;18.40;40.70;;;;;;20739;6834;117643;-74
2022/04/27 12:01:19;;;;;;;5.32;5.03;;;18.30;41.60;;;;;;20517;6834;310605;-74
2022/04/27 12:03:44;;;;;;;5.37;5.07;;;18.50;39.70;;;;;;20535;6834;307543;-72
2022/04/27 12:06:10;;;;;;;4.20;4.00;;;18.80;39.70;;;;;;20544;6834;278926;-72
2022/04/27 12:08:36;;;;;;;5.25;5.00;;;19.00;37.50;;;;;;20510;6834;287075;-72
2022/04/27 12:11:01;;;;;;;3.20;3.10;;;19.10;37.90;;;;;;20739;6834;117093;-73
2022/04/27 12:13:27;;;;;;;3.80;3.60;;;19.00;39.60;;;;;;20505;6834;307397;-73
2022/04/27 12:15:54;;;;;;;3.60;3.30;;;19.00;38.70;;;;;;20747;6834;117837;-73
2022/04/27 12:18:18;;;;;;;3.12;3.03;;;19.00;40.00;;;;;;20531;6834;278168;-73
2022/04/27 12:20:48;;;;;;;3.97;3.78;;;19.10;37.30;;;;;;20727;6834;117918;-73
2022/04/27 12:23:12;;;;;;;4.40;4.20;;;19.10;39.30;;;;;;20512;6834;312097;-74
2022/04/27 12:25:41;;;;;;;5.18;4.87;;;19.20;38.50;;;;;;20534;6834;310114;-74
2022/04/27 12:28:06;;;;;;;5.00;4.80;;;19.40;37.60;;;;;;20541;6834;310818;-74
2022/04/27 12:30:48;;;;;;;5.57;5.28;;;19.50;37.50;;;;;;20742;6834;117238;-74
2022/04/27 12:33:15;;;;;;;5.27;4.93;;;19.00;40.30;;;;;;20708;6834;154401;-74
2022/04/27 12:38:32;;;;;;;4.37;4.17;;;18.90;41.00;;;;;;20752;6834;117283;-74
2022/04/27 12:40:59;;;;;;;4.43;4.23;;;18.80;41.70;;;;;;20753;6833;117341;-73
2022/04/27 12:43:24;;;;;;;4.40;4.20;;;18.70;41.60;;;;;;20512;6834;307933;-74
2022/04/27 12:46:05;;;;;;;3.97;3.67;;;18.80;38.50;;;;;;20748;6834;117134;-74
2022/04/27 12:48:31;;;;;;;4.17;3.97;;;18.90;39.80;;;;;;20540;6834;278059;-73
2022/04/27 12:50:58;;;;;;;4.53;4.18;;;19.10;38.20;;;;;;20543;6834;278474;-73
2022/04/27 12:53:22;;;;;;;3.47;3.30;;;19.30;37.40;;;;;;20726;6834;119045;-73
2022/04/27 12:55:47;;;;;;;3.90;3.70;;;19.30;39.20;;;;;;20541;6834;281256;-74